Time;durP1;ratioP1;P1;durP2;ratioP2;P2;SDS_P1;SDS_P2;PMS_P1;PMS_P2;Temp;Humidity;BMP_temperature;BMP_pressure;BME280_temperature;BME280_humidity;BME280_pressure;Samples;Min_cycle;Max_cycle;Signal;HPM_P1;HPM_P2
2023/11/05 00:02:13;;;;;;;;;;;8.70;99.90;;;;;;5056095;28;19976;-78
2023/11/05 00:04:38;;;;;;;;;;;8.50;99.90;;;;;;5051094;28;19912;-78
2023/11/05 00:07:06;;;;;;;;;;;8.50;99.90;;;;;;5066460;28;19905;-79
2023/11/05 00:09:32;;;;;;;;;;;8.50;99.90;;;;;;5047009;28;19920;-78
2023/11/05 00:12:01;;;;;;;;;;;8.50;99.90;;;;;;5032735;28;19909;-79
2023/11/05 00:14:26;;;;;;;;;;;8.40;99.90;;;;;;5049233;28;19916;-78
2023/11/05 00:16:52;;;;;;;;;;;8.60;99.90;;;;;;5049375;28;19909;-78
2023/11/05 00:19:18;;;;;;;;;;;8.60;99.90;;;;;;5063871;28;19909;-78
2023/11/05 00:21:44;;;;;;;;;;;8.60;99.90;;;;;;5046176;28;19917;-78
2023/11/05 00:24:10;;;;;;;;;;;8.60;99.90;;;;;;5045382;28;19905;-78
2023/11/05 00:26:36;;;;;;;;;;;8.70;99.90;;;;;;5061309;28;19915;-78
2023/11/05 00:29:01;;;;;;;;;;;8.60;99.90;;;;;;5059883;28;19944;-78
2023/11/05 00:31:27;;;;;;;;;;;8.60;99.90;;;;;;5040686;28;19916;-78
2023/11/05 00:33:52;;;;;;;;;;;8.60;99.90;;;;;;5058762;28;19908;-78
2023/11/05 00:36:19;;;;;;;;;;;8.50;99.90;;;;;;5060709;28;19916;-78
2023/11/05 00:38:45;;;;;;;;;;;8.60;99.90;;;;;;5041843;28;19927;-77
2023/11/05 00:41:10;;;;;;;;;;;8.60;99.90;;;;;;5059135;28;19905;-78
2023/11/05 00:43:36;;;;;;;;;;;8.50;99.90;;;;;;5058701;28;19960;-79
2023/11/05 00:46:01;;;;;;;;;;;8.50;99.90;;;;;;5041517;28;19905;-78
2023/11/05 00:48:27;;;;;;;;;;;8.40;99.90;;;;;;5058954;28;19946;-78
2023/11/05 00:50:53;;;;;;;;;;;8.70;99.90;;;;;;5059497;28;20561;-78
2023/11/05 00:53:19;;;;;;;;;;;8.70;99.90;;;;;;5058864;28;20435;-77
2023/11/05 00:55:44;;;;;;;;;;;8.80;99.90;;;;;;5056405;28;19912;-78
2023/11/05 00:58:10;;;;;;;;;;;8.80;99.90;;;;;;5059035;28;20406;-77
2023/11/05 01:00:35;;;;;;;;;;;8.70;99.90;;;;;;5040797;28;19975;-77
2023/11/05 01:03:01;;;;;;;;;;;8.90;99.90;;;;;;5056646;28;19919;-78
2023/11/05 01:05:26;;;;;;;;;;;8.90;99.90;;;;;;5056202;28;19924;-78
2023/11/05 01:07:52;;;;;;;;;;;8.90;99.90;;;;;;5058444;28;19956;-77
2023/11/05 01:10:17;;;;;;;;;;;8.80;99.90;;;;;;5057691;28;19916;-78
2023/11/05 01:12:43;;;;;;;;;;;8.80;99.90;;;;;;5057452;28;19904;-78
2023/11/05 01:15:09;;;;;;;;;;;8.70;99.90;;;;;;5039269;28;20197;-77
2023/11/05 01:17:35;;;;;;;;;;;8.70;99.90;;;;;;5056159;28;20357;-78
2023/11/05 01:20:00;;;;;;;;;;;8.80;99.90;;;;;;5038638;28;19970;-78
2023/11/05 01:22:26;;;;;;;;;;;8.70;99.90;;;;;;5040443;28;20018;-77
2023/11/05 01:24:53;;;;;;;;;;;9.00;99.90;;;;;;5056907;28;20300;-77
2023/11/05 01:27:18;;;;;;;;;;;8.90;99.90;;;;;;5055817;28;19999;-77
2023/11/05 01:29:44;;;;;;;;;;;9.00;99.90;;;;;;5056759;28;19967;-77
2023/11/05 01:32:09;;;;;;;;;;;9.00;99.90;;;;;;5056244;28;20299;-78
2023/11/05 01:34:35;;;;;;;;;;;9.00;99.90;;;;;;5058231;28;19908;-78
2023/11/05 01:37:08;;;;;;;;;;;8.90;99.90;;;;;;5057683;28;19995;-80
2023/11/05 01:39:39;;;;;;;;;;;8.90;99.90;;;;;;5053909;28;19923;-79
2023/11/05 01:42:09;;;;;;;;;;;8.80;99.90;;;;;;5071550;28;19938;-79
2023/11/05 01:44:46;;;;;;;;;;;8.80;99.90;;;;;;5055258;28;19909;-79
2023/11/05 01:47:18;;;;;;;;;;;9.10;99.90;;;;;;5052433;28;19954;-79
2023/11/05 01:49:44;;;;;;;;;;;9.00;99.90;;;;;;5039355;28;19900;-80
2023/11/05 01:52:10;;;;;;;;;;;8.90;99.90;;;;;;5049682;28;20383;-79
2023/11/05 01:54:37;;;;;;;;;;;8.80;99.90;;;;;;5062192;28;19908;-78
2023/11/05 01:57:03;;;;;;;;;;;8.80;99.90;;;;;;5055764;28;20289;-78
2023/11/05 01:59:30;;;;;;;;;;;8.90;99.90;;;;;;5053784;28;19908;-77
2023/11/05 02:01:57;;;;;;;;;;;8.80;99.90;;;;;;5052408;28;19917;-77
2023/11/05 02:04:22;;;;;;;;;;;8.90;99.90;;;;;;5036708;28;20015;-77
2023/11/05 02:06:51;;;;;;;;;;;9.00;99.90;;;;;;5054655;28;19940;-77
2023/11/05 02:09:17;;;;;;;;;;;8.90;99.90;;;;;;5053769;28;19913;-77
2023/11/05 02:11:42;;;;;;;;;;;8.90;99.90;;;;;;5054885;28;19924;-77
2023/11/05 02:14:11;;;;;;;;;;;9.00;99.90;;;;;;5055599;28;19943;-77
2023/11/05 02:16:37;;;;;;;;;;;8.90;99.90;;;;;;5037106;28;20015;-77
2023/11/05 02:19:02;;;;;;;;;;;9.00;99.90;;;;;;5055228;28;19944;-77
2023/11/05 02:21:37;;;;;;;;;;;9.10;99.90;;;;;;5036889;28;20621;-76
2023/11/05 02:24:02;;;;;;;;;;;9.00;99.90;;;;;;5036066;28;20422;-78
2023/11/05 02:26:28;;;;;;;;;;;9.00;99.90;;;;;;5054645;28;19936;-78
2023/11/05 02:28:56;;;;;;;;;;;9.00;99.90;;;;;;5036921;28;19905;-77
2023/11/05 02:31:21;;;;;;;;;;;9.20;99.90;;;;;;5022213;28;19916;-78
2023/11/05 02:33:47;;;;;;;;;;;9.10;99.90;;;;;;5056242;28;19931;-78
2023/11/05 02:36:12;;;;;;;;;;;9.20;99.90;;;;;;5038399;28;19987;-79
2023/11/05 02:38:38;;;;;;;;;;;9.30;99.90;;;;;;5056456;28;19916;-78
2023/11/05 02:41:06;;;;;;;;;;;9.30;99.90;;;;;;5053246;28;19908;-76
2023/11/05 02:43:32;;;;;;;;;;;9.20;99.90;;;;;;5052810;28;19904;-77
2023/11/05 02:45:57;;;;;;;;;;;9.20;99.90;;;;;;5051979;28;19909;-77
2023/11/05 02:48:23;;;;;;;;;;;9.10;99.90;;;;;;5052653;28;19916;-77
2023/11/05 02:50:48;;;;;;;;;;;9.10;99.90;;;;;;5052806;28;19962;-76
2023/11/05 02:53:15;;;;;;;;;;;9.10;99.90;;;;;;5054099;28;19915;-77
2023/11/05 02:55:41;;;;;;;;;;;9.00;99.90;;;;;;5053523;28;19909;-78
2023/11/05 02:58:07;;;;;;;;;;;9.00;99.90;;;;;;5035447;28;19912;-78
2023/11/05 03:00:34;;;;;;;;;;;8.90;99.90;;;;;;5052651;28;19936;-77
2023/11/05 03:03:00;;;;;;;;;;;9.00;99.90;;;;;;5054154;28;19917;-79
2023/11/05 03:05:25;;;;;;;;;;;9.00;99.90;;;;;;5058129;28;19970;-79
2023/11/05 03:07:51;;;;;;;;;;;9.10;99.90;;;;;;5058145;28;19999;-78
2023/11/05 03:10:17;;;;;;;;;;;9.00;99.90;;;;;;5054694;28;19913;-77
2023/11/05 03:12:43;;;;;;;;;;;9.10;99.90;;;;;;5054020;28;19916;-78
2023/11/05 03:15:10;;;;;;;;;;;9.10;99.90;;;;;;5053512;28;19909;-77
2023/11/05 03:17:37;;;;;;;;;;;9.10;99.90;;;;;;5053090;28;19997;-77
2023/11/05 03:20:06;;;;;;;;;;;9.10;99.90;;;;;;5052898;28;19919;-77
2023/11/05 03:22:35;;;;;;;;;;;9.10;99.90;;;;;;5052672;28;19920;-77
2023/11/05 03:25:01;;;;;;;;;;;9.00;99.90;;;;;;5052661;28;19905;-77
2023/11/05 03:27:27;;;;;;;;;;;9.00;99.90;;;;;;5035408;28;20379;-77
2023/11/05 03:29:53;;;;;;;;;;;9.00;99.90;;;;;;5052890;28;19908;-77
2023/11/05 03:32:18;;;;;;;;;;;9.00;99.90;;;;;;5051998;28;20372;-76
2023/11/05 03:34:45;;;;;;;;;;;9.00;99.90;;;;;;5052428;28;19905;-76
2023/11/05 03:37:10;;;;;;;;;;;9.00;99.90;;;;;;5056010;28;20006;-76
2023/11/05 03:39:36;;;;;;;;;;;9.10;99.90;;;;;;5056703;28;20585;-77
2023/11/05 03:42:01;;;;;;;;;;;9.00;99.90;;;;;;5056445;28;19916;-76
2023/11/05 03:44:27;;;;;;;;;;;9.10;99.90;;;;;;5055988;28;19908;-76
2023/11/05 03:46:53;;;;;;;;;;;9.10;99.90;;;;;;5055597;28;20373;-76
2023/11/05 03:49:18;;;;;;;;;;;9.20;99.90;;;;;;5055796;28;19924;-75
2023/11/05 03:51:44;;;;;;;;;;;9.00;99.90;;;;;;5055589;28;19909;-76
2023/11/05 03:54:10;;;;;;;;;;;9.10;99.90;;;;;;5055546;28;19909;-75
2023/11/05 03:56:36;;;;;;;;;;;9.00;99.90;;;;;;5055444;28;20369;-76
2023/11/05 03:59:02;;;;;;;;;;;9.10;99.90;;;;;;5054899;28;19979;-75
2023/11/05 04:01:27;;;;;;;;;;;9.10;99.90;;;;;;5054690;28;19920;-76
2023/11/05 04:03:53;;;;;;;;;;;9.00;99.90;;;;;;5055377;28;19912;-76
2023/11/05 04:06:19;;;;;;;;;;;9.00;99.90;;;;;;5057320;28;19995;-78
2023/11/05 04:08:46;;;;;;;;;;;8.90;99.90;;;;;;5058733;28;19911;-78
2023/11/05 04:11:12;;;;;;;;;;;8.90;99.90;;;;;;5055569;28;19904;-77
2023/11/05 04:13:38;;;;;;;;;;;8.90;99.90;;;;;;5053900;28;19908;-77
2023/11/05 04:16:04;;;;;;;;;;;8.90;99.90;;;;;;5055397;28;19963;-77
2023/11/05 04:18:29;;;;;;;;;;;8.90;99.90;;;;;;5055344;28;19915;-77
2023/11/05 04:20:55;;;;;;;;;;;8.90;99.90;;;;;;5055519;28;20293;-76
2023/11/05 04:23:20;;;;;;;;;;;8.90;99.90;;;;;;5057085;28;19917;-77
2023/11/05 04:25:47;;;;;;;;;;;8.90;99.90;;;;;;5057825;28;19916;-79
2023/11/05 04:28:13;;;;;;;;;;;9.00;99.90;;;;;;5058526;28;19904;-78
2023/11/05 04:30:39;;;;;;;;;;;9.00;99.90;;;;;;5058137;28;19909;-77
2023/11/05 04:33:04;;;;;;;;;;;9.00;99.90;;;;;;5057491;28;19998;-77
2023/11/05 04:35:31;;;;;;;;;;;9.00;99.90;;;;;;5039172;28;20288;-78
2023/11/05 04:37:56;;;;;;;;;;;9.00;99.90;;;;;;5039818;28;19908;-78
2023/11/05 04:40:22;;;;;;;;;;;8.90;99.90;;;;;;5058388;28;20000;-78
2023/11/05 04:42:49;;;;;;;;;;;8.90;99.90;;;;;;5057307;28;19913;-78
2023/11/05 04:45:15;;;;;;;;;;;8.90;99.90;;;;;;5053529;28;19916;-77
2023/11/05 04:47:40;;;;;;;;;;;9.00;99.90;;;;;;5052930;28;20305;-76
2023/11/05 04:50:07;;;;;;;;;;;8.90;99.90;;;;;;5053553;28;19936;-76
2023/11/05 04:52:32;;;;;;;;;;;8.90;99.90;;;;;;5053590;28;19970;-77
2023/11/05 04:55:00;;;;;;;;;;;8.90;99.90;;;;;;5052570;28;19905;-76
2023/11/05 04:57:25;;;;;;;;;;;8.90;99.90;;;;;;5054296;28;19983;-77
2023/11/05 04:59:51;;;;;;;;;;;8.90;99.90;;;;;;5056175;28;19909;-77
2023/11/05 05:02:16;;;;;;;;;;;8.80;99.90;;;;;;5056015;28;19920;-78
2023/11/05 05:04:42;;;;;;;;;;;8.80;99.90;;;;;;5053122;28;20419;-77
2023/11/05 05:07:07;;;;;;;;;;;8.90;99.90;;;;;;5054547;28;20402;-77
2023/11/05 05:09:34;;;;;;;;;;;8.70;99.90;;;;;;5054793;28;19912;-77
2023/11/05 05:12:00;;;;;;;;;;;8.70;99.90;;;;;;5036438;28;19915;-77
2023/11/05 05:14:26;;;;;;;;;;;8.70;99.90;;;;;;5054709;28;19909;-77
2023/11/05 05:16:52;;;;;;;;;;;8.70;99.90;;;;;;5055585;28;19948;-77
2023/11/05 05:19:17;;;;;;;;;;;8.70;99.90;;;;;;5055784;28;20355;-77
2023/11/05 05:21:44;;;;;;;;;;;8.70;99.90;;;;;;5038455;28;20392;-77
2023/11/05 05:24:10;;;;;;;;;;;8.70;99.90;;;;;;5055743;28;19911;-78
2023/11/05 05:26:36;;;;;;;;;;;8.70;99.90;;;;;;5054862;28;19972;-77
2023/11/05 05:29:03;;;;;;;;;;;8.80;99.90;;;;;;5055404;28;19908;-77
2023/11/05 05:31:29;;;;;;;;;;;8.80;99.90;;;;;;5055512;28;19908;-78
2023/11/05 05:33:54;;;;;;;;;;;8.80;99.90;;;;;;5036647;28;19912;-77
2023/11/05 05:36:20;;;;;;;;;;;8.70;99.90;;;;;;5055542;28;20477;-77
2023/11/05 05:38:46;;;;;;;;;;;8.80;99.90;;;;;;5037027;28;19917;-76
2023/11/05 05:41:12;;;;;;;;;;;8.90;99.90;;;;;;5054757;28;19908;-77
2023/11/05 05:43:37;;;;;;;;;;;8.80;99.90;;;;;;5054844;28;19905;-77
2023/11/05 05:46:03;;;;;;;;;;;8.90;99.90;;;;;;5054766;28;19908;-77
2023/11/05 05:48:28;;;;;;;;;;;8.90;99.90;;;;;;5054411;28;20011;-76
2023/11/05 05:50:54;;;;;;;;;;;8.90;99.90;;;;;;5055183;28;19915;-77
2023/11/05 05:53:20;;;;;;;;;;;8.90;99.90;;;;;;5055566;28;19916;-77
2023/11/05 05:55:46;;;;;;;;;;;8.90;99.90;;;;;;5053950;28;19908;-77
2023/11/05 05:58:12;;;;;;;;;;;8.80;99.90;;;;;;5052999;28;19905;-77
2023/11/05 06:00:38;;;;;;;;;;;8.80;99.90;;;;;;5040801;28;19905;-79
2023/11/05 06:03:04;;;;;;;;;;;8.90;99.90;;;;;;5057670;28;19917;-77
2023/11/05 06:05:29;;;;;;;;;;;8.90;99.90;;;;;;5056064;28;20399;-76
2023/11/05 06:07:55;;;;;;;;;;;8.80;99.90;;;;;;5055647;28;19908;-77
2023/11/05 06:10:21;;;;;;;;;;;8.80;99.90;;;;;;5053651;28;19905;-77
2023/11/05 06:12:46;;;;;;;;;;;8.80;99.90;;;;;;5054354;28;19913;-77
2023/11/05 06:15:12;;;;;;;;;;;8.90;99.90;;;;;;5054742;28;19960;-76
2023/11/05 06:17:38;;;;;;;;;;;8.90;99.90;;;;;;5054114;28;19981;-77
2023/11/05 06:20:07;;;;;;;;;;;8.80;99.90;;;;;;5054925;28;19955;-78
2023/11/05 06:22:33;;;;;;;;;;;8.90;99.90;;;;;;5055588;28;19917;-78
2023/11/05 06:24:59;;;;;;;;;;;8.90;99.90;;;;;;5053498;28;19912;-77
2023/11/05 06:27:25;;;;;;;;;;;8.90;99.90;;;;;;5052779;28;19908;-77
2023/11/05 06:29:55;;;;;;;;;;;8.80;99.90;;;;;;5050733;28;19908;-76
2023/11/05 06:32:21;;;;;;;;;;;8.90;99.90;;;;;;5052037;28;19999;-77
2023/11/05 06:34:47;;;;;;;;;;;8.90;99.90;;;;;;5051854;28;20011;-76
2023/11/05 06:37:13;;;;;;;;;;;8.90;99.90;;;;;;5051864;28;19912;-78
2023/11/05 06:39:39;;;;;;;;;;;8.80;99.90;;;;;;5053167;28;19927;-78
2023/11/05 06:42:05;;;;;;;;;;;8.90;99.90;;;;;;5052922;28;20289;-77
2023/11/05 06:44:31;;;;;;;;;;;8.90;99.90;;;;;;5053028;28;19908;-77
2023/11/05 06:46:56;;;;;;;;;;;8.80;99.90;;;;;;5052997;28;19909;-77
2023/11/05 06:49:22;;;;;;;;;;;8.80;99.90;;;;;;5052198;28;19904;-77
2023/11/05 06:51:47;;;;;;;;;;;8.80;99.90;;;;;;5052815;28;19905;-77
2023/11/05 06:54:13;;;;;;;;;;;8.80;99.90;;;;;;5051763;28;19905;-77
2023/11/05 06:56:38;;;;;;;;;;;8.70;99.90;;;;;;5051852;28;19904;-77
2023/11/05 06:59:04;;;;;;;;;;;8.80;99.90;;;;;;5033603;28;19911;-77
2023/11/05 07:01:29;;;;;;;;;;;8.80;99.90;;;;;;5051151;28;19905;-77
2023/11/05 07:03:57;;;;;;;;;;;8.80;99.90;;;;;;5051817;28;19912;-77
2023/11/05 07:06:22;;;;;;;;;;;8.80;99.90;;;;;;5053947;28;19912;-76
2023/11/05 07:08:48;;;;;;;;;;;8.80;99.90;;;;;;5051990;28;19909;-77
2023/11/05 07:11:13;;;;;;;;;;;8.90;99.90;;;;;;5052824;28;19951;-76
2023/11/05 07:13:39;;;;;;;;;;;8.90;99.90;;;;;;5051178;28;19951;-76
2023/11/05 07:16:04;;;;;;;;;;;8.90;99.90;;;;;;5054069;28;19904;-78
2023/11/05 07:18:30;;;;;;;;;;;8.90;99.90;;;;;;5055042;28;19911;-78
2023/11/05 07:20:57;;;;;;;;;;;8.90;99.90;;;;;;5034356;28;19905;-76
2023/11/05 07:23:22;;;;;;;;;;;9.00;99.90;;;;;;5051625;28;19958;-78
2023/11/05 07:25:48;;;;;;;;;;;8.90;99.90;;;;;;5053770;28;20270;-78
2023/11/05 07:28:13;;;;;;;;;;;9.00;99.90;;;;;;5055173;28;19959;-76
2023/11/05 07:30:40;;;;;;;;;;;9.00;99.90;;;;;;5051415;28;20288;-77
2023/11/05 07:33:07;;;;;;;;;;;9.10;99.90;;;;;;5055745;28;20402;-78
2023/11/05 07:35:33;;;;;;;;;;;9.00;99.90;;;;;;5034416;28;19916;-75
2023/11/05 07:37:59;;;;;;;;;;;9.10;99.90;;;;;;5052591;28;19951;-78
2023/11/05 07:40:24;;;;;;;;;;;9.10;99.90;;;;;;5034586;28;19946;-77
2023/11/05 07:42:50;;;;;;;;;;;9.10;99.90;;;;;;5052295;28;19920;-76
2023/11/05 07:45:15;;;;;;;;;;;9.00;99.90;;;;;;5051170;28;19912;-77
2023/11/05 07:47:41;;;;;;;;;;;9.00;99.90;;;;;;5052705;28;19911;-76
2023/11/05 07:50:10;;;;;;;;;;;9.00;99.90;;;;;;5059046;28;19919;-78
2023/11/05 07:52:37;;;;;;;;;;;9.00;99.90;;;;;;5053213;28;19908;-77
2023/11/05 07:55:04;;;;;;;;;;;8.90;99.90;;;;;;5054434;28;19944;-78
2023/11/05 07:57:30;;;;;;;;;;;9.00;99.90;;;;;;5053361;28;19909;-77
2023/11/05 07:59:55;;;;;;;;;;;9.00;99.90;;;;;;5068939;28;20339;-77
2023/11/05 08:02:21;;;;;;;;;;;9.10;99.90;;;;;;5061787;28;19936;-77
2023/11/05 08:04:46;;;;;;;;;;;9.10;99.90;;;;;;5057269;28;19947;-78
2023/11/05 08:07:12;;;;;;;;;;;9.10;99.90;;;;;;5072226;28;20474;-76
2023/11/05 08:09:37;;;;;;;;;;;9.10;99.90;;;;;;5072895;28;19993;-77
2023/11/05 08:12:04;;;;;;;;;;;9.20;99.90;;;;;;5071174;28;19953;-77
2023/11/05 08:14:29;;;;;;;;;;;9.00;99.90;;;;;;5066158;28;19916;-76
2023/11/05 08:16:55;;;;;;;;;;;9.10;99.90;;;;;;5072291;28;19916;-77
2023/11/05 08:19:20;;;;;;;;;;;9.10;99.90;;;;;;5073137;28;19912;-77
2023/11/05 08:21:46;;;;;;;;;;;9.00;99.90;;;;;;5073956;28;19924;-77
2023/11/05 08:24:11;;;;;;;;;;;9.10;99.90;;;;;;5064471;28;19948;-77
2023/11/05 08:26:37;;;;;;;;;;;9.10;99.90;;;;;;5060304;28;20379;-77
2023/11/05 08:29:02;;;;;;;;;;;9.10;99.90;;;;;;5059745;28;19908;-76
2023/11/05 08:31:29;;;;;;;;;;;9.30;99.90;;;;;;5068835;28;20410;-78
2023/11/05 08:33:55;;;;;;;;;;;9.30;99.90;;;;;;5055309;28;20353;-77
2023/11/05 08:36:20;;;;;;;;;;;9.30;99.90;;;;;;5077376;28;19904;-77
2023/11/05 08:38:46;;;;;;;;;;;9.30;99.90;;;;;;5075093;28;20441;-76
2023/11/05 08:41:12;;;;;;;;;;;9.30;99.90;;;;;;5074375;28;19948;-76
2023/11/05 08:43:38;;;;;;;;;;;9.30;99.90;;;;;;5071370;28;19920;-78
2023/11/05 08:46:03;;;;;;;;;;;9.20;99.90;;;;;;5077521;28;19912;-78
2023/11/05 08:48:29;;;;;;;;;;;9.20;99.90;;;;;;5059359;28;19915;-78
2023/11/05 08:50:55;;;;;;;;;;;9.20;99.90;;;;;;5053551;28;19915;-78
2023/11/05 08:53:23;;;;;;;;;;;9.20;99.90;;;;;;5073334;28;20658;-78
2023/11/05 08:55:48;;;;;;;;;;;9.30;99.90;;;;;;5075746;28;19927;-78
2023/11/05 08:58:15;;;;;;;;;;;9.40;99.90;;;;;;5056771;28;19972;-79
2023/11/05 09:00:42;;;;;;;;;;;9.30;99.90;;;;;;5055427;28;19926;-79
2023/11/05 09:03:07;;;;;;;;;;;9.30;99.90;;;;;;5054035;28;20430;-77
2023/11/05 09:05:33;;;;;;;;;;;9.30;99.90;;;;;;5039644;28;19978;-78
2023/11/05 09:07:58;;;;;;;;;;;9.40;99.90;;;;;;5057923;28;19991;-77
2023/11/05 09:10:26;;;;;;;;;;;9.50;99.90;;;;;;5056359;28;19905;-78
2023/11/05 09:12:53;;;;;;;;;;;9.50;99.90;;;;;;5039394;28;19958;-77
2023/11/05 09:15:19;;;;;;;;;;;9.50;99.90;;;;;;5057216;28;19909;-77
2023/11/05 09:17:44;;;;;;;;;;;9.50;99.90;;;;;;5059577;28;19928;-77
2023/11/05 09:20:10;;;;;;;;;;;9.50;99.90;;;;;;5039397;28;19905;-78
2023/11/05 09:22:39;;;;;;;;;;;9.50;99.90;;;;;;5058196;28;19919;-77
2023/11/05 09:25:07;;;;;;;;;;;9.40;99.90;;;;;;5058803;28;19904;-78
2023/11/05 09:27:37;;;;;;;;;;;9.50;99.90;;;;;;5056137;28;19909;-77
2023/11/05 09:30:03;;;;;;;;;;;9.50;99.90;;;;;;5063008;28;19912;-78
2023/11/05 09:32:28;;;;;;;;;;;9.50;99.90;;;;;;5058418;28;20055;-77
2023/11/05 09:34:54;;;;;;;;;;;9.50;99.90;;;;;;5058117;28;19944;-78
2023/11/05 09:37:19;;;;;;;;;;;9.50;99.90;;;;;;5041566;28;19905;-78
2023/11/05 09:39:45;;;;;;;;;;;9.50;99.90;;;;;;5041480;28;19916;-78
2023/11/05 09:42:13;;;;;;;;;;;9.50;99.90;;;;;;5058067;28;19912;-76
2023/11/05 09:44:39;;;;;;;;;;;9.70;99.90;;;;;;5038942;28;19920;-78
2023/11/05 09:47:05;;;;;;;;;;;9.70;99.90;;;;;;5057444;28;20392;-77
2023/11/05 09:49:31;;;;;;;;;;;9.70;99.90;;;;;;5056952;28;19905;-78
2023/11/05 09:51:59;;;;;;;;;;;9.70;99.90;;;;;;5059496;28;19989;-79
2023/11/05 09:54:25;;;;;;;;;;;9.70;99.90;;;;;;5057497;28;19992;-78
2023/11/05 09:56:51;;;;;;;;;;;9.80;99.90;;;;;;5058120;28;20454;-77
2023/11/05 09:59:16;;;;;;;;;;;9.70;99.90;;;;;;5056793;28;19912;-77
2023/11/05 10:01:51;;;;;;;;;;;9.70;99.90;;;;;;5065512;28;20365;-77
2023/11/05 10:04:17;;;;;;;;;;;9.80;99.90;;;;;;5070341;28;19962;-78
2023/11/05 10:06:43;;;;;;;;;;;9.80;99.90;;;;;;5067973;28;19908;-76
2023/11/05 10:09:10;;;;;;;;;;;9.80;99.90;;;;;;5057648;28;20408;-78
2023/11/05 10:11:36;;;;;;;;;;;9.80;99.90;;;;;;5049169;28;19909;-78
2023/11/05 10:14:02;;;;;;;;;;;9.70;99.90;;;;;;5058245;28;19920;-77
2023/11/05 10:16:28;;;;;;;;;;;9.70;99.90;;;;;;5078998;28;20395;-78
2023/11/05 10:18:56;;;;;;;;;;;9.70;99.90;;;;;;5094224;28;20005;-77
2023/11/05 10:21:35;;;;;;;;;;;9.80;99.90;;;;;;5079577;28;19908;-78
2023/11/05 10:24:01;;;;;;;;;;;9.80;99.90;;;;;;5058555;28;19916;-77
2023/11/05 10:26:31;;;;;;;;;;;9.80;99.90;;;;;;5075614;28;19910;-77
2023/11/05 10:28:57;;;;;;;;;;;9.80;99.90;;;;;;5059755;28;19908;-78
2023/11/05 10:31:26;;;;;;;;;;;9.80;99.90;;;;;;5059124;28;19951;-77
2023/11/05 10:33:54;;;;;;;;;;;9.90;99.90;;;;;;5077150;28;19908;-77
2023/11/05 10:36:20;;;;;;;;;;;9.90;99.90;;;;;;5077058;28;19980;-77
2023/11/05 10:38:48;;;;;;;;;;;10.00;99.90;;;;;;5070614;28;20376;-78
2023/11/05 10:41:18;;;;;;;;;;;10.10;99.90;;;;;;5040581;28;19979;-75
2023/11/05 10:43:53;;;;;;;;;;;10.00;99.90;;;;;;5038099;28;19912;-77
2023/11/05 10:46:19;;;;;;;;;;;10.10;99.90;;;;;;5038771;28;20452;-78
2023/11/05 10:48:47;;;;;;;;;;;10.10;99.90;;;;;;5039349;28;19905;-78
2023/11/05 10:51:14;;;;;;;;;;;10.10;99.90;;;;;;5059282;28;19916;-78
2023/11/05 10:53:40;;;;;;;;;;;10.10;99.90;;;;;;5056777;28;20011;-79
2023/11/05 10:56:26;;;;;;;;;;;10.20;99.90;;;;;;5039331;28;19940;-78
2023/11/05 10:58:52;;;;;;;;;;;10.20;99.90;;;;;;5035734;28;20465;-78
2023/11/05 11:01:20;;;;;;;;;;;10.20;99.90;;;;;;5037771;28;19967;-78
2023/11/05 11:03:47;;;;;;;;;;;10.20;99.90;;;;;;5036949;28;19913;-77
2023/11/05 11:06:13;;;;;;;;;;;10.20;99.90;;;;;;5056588;28;20305;-77
2023/11/05 11:08:53;;;;;;;;;;;10.20;99.90;;;;;;5047472;28;20277;-77
2023/11/05 11:11:19;;;;;;;;;;;10.20;99.90;;;;;;5037202;28;19924;-77
2023/11/05 11:13:49;;;;;;;;;;;10.20;99.90;;;;;;5059200;28;19905;-78
2023/11/05 11:16:22;;;;;;;;;;;10.30;99.90;;;;;;5040317;28;19908;-77
2023/11/05 11:18:49;;;;;;;;;;;10.20;99.90;;;;;;5039462;28;19913;-78
2023/11/05 11:21:19;;;;;;;;;;;10.40;99.90;;;;;;5059897;28;19909;-78
2023/11/05 11:23:45;;;;;;;;;;;10.20;99.90;;;;;;5041296;28;19955;-77
2023/11/05 11:26:36;;;;;;;;;;;10.10;99.90;;;;;;5055091;28;20281;-78
2023/11/05 11:29:04;;;;;;;;;;;10.20;99.90;;;;;;5053812;28;19909;-77
2023/11/05 11:31:31;;;;;;;;;;;10.20;99.90;;;;;;5057547;28;19908;-78
2023/11/05 11:34:01;;;;;;;;;;;10.20;99.90;;;;;;5060700;28;19916;-79
2023/11/05 11:36:28;;;;;;;;;;;10.20;99.90;;;;;;5042752;28;19905;-77
2023/11/05 11:38:54;;;;;;;;;;;10.30;99.90;;;;;;5048257;28;20292;-77
2023/11/05 11:41:20;;;;;;;;;;;10.40;99.90;;;;;;5074593;28;19999;-77
2023/11/05 11:43:46;;;;;;;;;;;10.30;99.90;;;;;;5057619;28;19952;-77
2023/11/05 11:46:13;;;;;;;;;;;10.30;99.90;;;;;;5056717;28;20438;-76
2023/11/05 11:48:41;;;;;;;;;;;10.30;99.90;;;;;;5059372;28;19908;-77
2023/11/05 11:51:07;;;;;;;;;;;10.40;99.90;;;;;;5062642;28;19904;-78
2023/11/05 11:53:40;;;;;;;;;;;10.50;99.90;;;;;;5064396;28;19931;-78
2023/11/05 11:56:06;;;;;;;;;;;10.50;99.90;;;;;;5063597;28;19904;-77
2023/11/05 11:58:36;;;;;;;;;;;10.40;99.90;;;;;;5068366;28;19908;-78
2023/11/05 12:01:01;;;;;;;;;;;10.40;99.90;;;;;;5068455;28;19958;-78
2023/11/05 12:03:30;;;;;;;;;;;10.40;99.90;;;;;;5084605;28;19940;-78
2023/11/05 12:05:56;;;;;;;;;;;10.40;99.90;;;;;;5067379;28;19904;-77
2023/11/05 12:08:54;;;;;;;;;;;10.40;99.90;;;;;;5066674;28;19905;-79
2023/11/05 12:11:27;;;;;;;;;;;10.40;99.90;;;;;;5041704;28;19904;-80
2023/11/05 12:13:54;;;;;;;;;;;10.50;99.90;;;;;;5067999;28;19904;-78
2023/11/05 12:16:24;;;;;;;;;;;10.50;99.90;;;;;;5084248;28;19944;-78
2023/11/05 12:18:49;;;;;;;;;;;10.50;99.90;;;;;;5084875;28;19905;-78
2023/11/05 12:21:15;;;;;;;;;;;10.60;99.90;;;;;;5066203;28;19904;-78
2023/11/05 12:23:42;;;;;;;;;;;10.50;99.90;;;;;;5084827;28;19916;-76
2023/11/05 12:26:08;;;;;;;;;;;10.60;99.90;;;;;;5082728;28;20303;-78
2023/11/05 12:28:34;;;;;;;;;;;10.50;99.90;;;;;;5083806;28;19915;-78
2023/11/05 12:31:01;;;;;;;;;;;10.70;99.90;;;;;;5084145;28;19908;-77
2023/11/05 12:33:27;;;;;;;;;;;10.70;99.90;;;;;;5066185;28;19911;-77
2023/11/05 12:35:57;;;;;;;;;;;10.00;99.90;;;;;;5085275;28;19915;-77
2023/11/05 12:38:36;;;;;;;;;;;11.00;99.90;;;;;;5068124;28;19908;-78
2023/11/05 12:41:02;;;;;;;;;;;10.70;99.90;;;;;;5067780;28;19943;-78
2023/11/05 12:43:28;;;;;;;;;;;10.60;99.90;;;;;;5066656;28;19991;-77
2023/11/05 12:45:55;;;;;;;;;;;10.60;99.90;;;;;;5078143;28;20028;-78
2023/11/05 12:48:23;;;;;;;;;;;10.70;99.90;;;;;;5063166;28;19909;-78
2023/11/05 12:50:51;;;;;;;;;;;10.70;99.90;;;;;;5063656;28;19930;-78
2023/11/05 12:53:17;;;;;;;;;;;10.20;99.90;;;;;;5045948;28;19909;-77
2023/11/05 12:55:43;;;;;;;;;;;10.70;99.90;;;;;;5048743;28;19916;-78
2023/11/05 12:58:09;;;;;;;;;;;10.70;99.90;;;;;;5066167;28;19904;-79
2023/11/05 13:00:34;;;;;;;;;;;10.70;99.90;;;;;;5084346;28;20454;-79
2023/11/05 13:03:00;;;;;;;;;;;10.70;99.90;;;;;;5082592;28;19912;-78
2023/11/05 13:05:26;;;;;;;;;;;10.80;99.90;;;;;;5085593;28;20007;-78
2023/11/05 13:07:52;;;;;;;;;;;10.80;99.90;;;;;;5080346;28;20003;-78
2023/11/05 13:10:17;;;;;;;;;;;10.80;99.90;;;;;;5064065;28;20410;-78
2023/11/05 13:12:43;;;;;;;;;;;10.80;99.90;;;;;;5061379;28;19908;-79
2023/11/05 13:15:12;;;;;;;;;;;10.80;99.90;;;;;;5063230;28;19962;-78
2023/11/05 13:17:38;;;;;;;;;;;10.80;99.90;;;;;;5061384;28;19935;-78
2023/11/05 13:20:10;;;;;;;;;;;10.90;99.90;;;;;;5069334;28;19967;-77
2023/11/05 13:22:45;;;;;;;;;;;10.80;99.90;;;;;;5083709;28;19913;-78
2023/11/05 13:25:12;;;;;;;;;;;10.80;99.90;;;;;;5065893;28;19908;-79
2023/11/05 13:27:39;;;;;;;;;;;10.80;99.90;;;;;;5081976;28;20338;-78
2023/11/05 13:30:08;;;;;;;;;;;10.80;99.90;;;;;;5075754;28;19931;-78
2023/11/05 13:32:39;;;;;;;;;;;10.80;99.90;;;;;;5070242;28;20052;-77
2023/11/05 13:35:06;;;;;;;;;;;10.90;99.90;;;;;;5079966;28;19952;-77
2023/11/05 13:37:32;;;;;;;;;;;10.90;99.90;;;;;;5061518;28;19984;-77
2023/11/05 13:39:59;;;;;;;;;;;10.80;99.90;;;;;;5047951;28;19920;-78
2023/11/05 13:42:25;;;;;;;;;;;11.00;99.90;;;;;;5060899;28;19958;-77
2023/11/05 13:44:51;;;;;;;;;;;11.00;99.90;;;;;;5043869;28;19904;-78
2023/11/05 13:47:18;;;;;;;;;;;11.00;99.90;;;;;;5064168;28;20342;-77
2023/11/05 13:49:44;;;;;;;;;;;11.00;99.90;;;;;;5039858;28;19951;-78
2023/11/05 13:52:09;;;;;;;;;;;11.00;99.90;;;;;;5039246;28;19932;-78
2023/11/05 13:54:37;;;;;;;;;;;11.00;99.90;;;;;;5045224;28;19916;-78
2023/11/05 13:57:04;;;;;;;;;;;11.10;99.90;;;;;;5042186;28;19905;-77
2023/11/05 13:59:32;;;;;;;;;;;11.20;99.90;;;;;;5029514;28;19909;-78
2023/11/05 14:01:59;;;;;;;;;;;11.10;99.90;;;;;;5043942;28;19912;-78
2023/11/05 14:04:26;;;;;;;;;;;11.20;99.90;;;;;;5041970;28;19909;-77
2023/11/05 14:06:52;;;;;;;;;;;11.20;99.90;;;;;;5042174;28;19905;-78
2023/11/05 14:09:18;;;;;;;;;;;11.30;99.90;;;;;;5062496;28;19909;-78
2023/11/05 14:11:45;;;;;;;;;;;11.20;99.90;;;;;;5042920;28;19905;-78
2023/11/05 14:14:12;;;;;;;;;;;11.20;99.90;;;;;;5061458;28;20396;-76
2023/11/05 14:16:42;;;;;;;;;;;11.20;99.90;;;;;;5042425;28;19966;-77
2023/11/05 14:19:08;;;;;;;;;;;11.20;99.90;;;;;;5043637;28;19912;-77
2023/11/05 14:21:34;;;;;;;;;;;11.30;99.90;;;;;;5044458;28;19942;-77
2023/11/05 14:24:00;;;;;;;;;;;11.40;99.90;;;;;;5042221;28;20399;-78